Time;durP1;ratioP1;P1;durP2;ratioP2;P2;SDS_P1;SDS_P2;PMS_P1;PMS_P2;Temp;Humidity;BMP_temperature;BMP_pressure;BME280_temperature;BME280_humidity;BME280_pressure;Samples;Min_cycle;Max_cycle;Signal;HPM_P1;HPM_P2
2022/01/16 00:00:23;;;;;;;75.57;32.87;;;2.90;99.90;;;;;;5037440;28;20045;-78
2022/01/16 00:05:25;;;;;;;78.57;31.37;;;2.80;99.90;;;;;;5071527;28;20053;-77
2022/01/16 00:07:52;;;;;;;79.23;30.97;;;2.90;99.90;;;;;;5068336;28;20037;-76
2022/01/16 00:10:19;;;;;;;80.33;31.87;;;2.70;99.90;;;;;;5072676;28;20056;-76
2022/01/16 00:12:48;;;;;;;81.57;30.70;;;2.80;99.90;;;;;;5052282;28;20037;-76
2022/01/16 00:15:19;;;;;;;78.80;30.33;;;2.80;99.90;;;;;;5023785;28;20045;-76
2022/01/16 00:18:08;;;;;;;82.83;30.07;;;2.70;99.90;;;;;;5038055;28;20047;-76
2022/01/16 00:20:35;;;;;;;89.93;32.20;;;2.70;99.90;;;;;;5084882;28;20099;-76
2022/01/16 00:23:04;;;;;;;86.20;30.30;;;2.70;99.90;;;;;;5040028;28;20087;-75
2022/01/16 00:25:30;;;;;;;76.23;29.57;;;2.80;99.90;;;;;;5054790;28;20044;-77
2022/01/16 00:27:56;;;;;;;73.30;28.50;;;2.70;99.90;;;;;;5021792;28;20049;-77
2022/01/16 00:30:22;;;;;;;68.17;27.77;;;2.70;99.90;;;;;;5071175;28;20056;-79
2022/01/16 00:32:47;;;;;;;72.67;28.07;;;2.70;99.90;;;;;;5071121;28;20158;-76
2022/01/16 00:35:14;;;;;;;76.83;27.60;;;2.70;99.90;;;;;;5055584;28;20076;-76
2022/01/16 00:37:40;;;;;;;67.33;25.03;;;2.60;99.90;;;;;;5037952;28;20045;-76
2022/01/16 00:40:09;;;;;;;77.17;28.33;;;2.60;99.90;;;;;;5072024;28;20571;-76
2022/01/16 00:42:35;;;;;;;76.77;26.63;;;2.50;99.90;;;;;;5035848;28;20052;-76
2022/01/16 00:45:00;;;;;;;69.63;25.30;;;2.50;99.90;;;;;;5070952;28;20140;-76
2022/01/16 00:47:26;;;;;;;72.37;28.53;;;2.60;99.90;;;;;;5019512;28;20073;-76
2022/01/16 00:49:52;;;;;;;70.10;28.13;;;2.50;99.90;;;;;;5023239;28;20081;-75
2022/01/16 00:52:19;;;;;;;68.13;26.97;;;2.60;99.90;;;;;;5005642;28;20460;-74
2022/01/16 00:54:45;;;;;;;65.00;26.07;;;2.50;99.90;;;;;;5019203;28;20041;-76
2022/01/16 00:57:10;;;;;;;74.13;27.00;;;2.40;99.90;;;;;;5072176;28;20063;-76
2022/01/16 00:59:36;;;;;;;70.40;27.07;;;2.40;99.90;;;;;;5037044;28;20045;-76
2022/01/16 01:02:02;;;;;;;68.57;29.60;;;2.40;99.90;;;;;;5071884;28;20059;-76
2022/01/16 01:04:28;;;;;;;67.80;27.43;;;2.40;99.90;;;;;;5004969;28;20045;-75
2022/01/16 01:06:55;;;;;;;71.43;28.97;;;2.30;99.90;;;;;;5071716;28;20132;-74
2022/01/16 01:09:21;;;;;;;75.47;29.13;;;2.30;99.90;;;;;;5054918;28;20076;-76
2022/01/16 01:11:49;;;;;;;78.10;30.80;;;2.30;99.90;;;;;;5054090;28;20114;-76
2022/01/16 01:14:38;;;;;;;76.17;29.83;;;2.30;99.90;;;;;;5021498;28;20041;-75
2022/01/16 01:17:04;;;;;;;71.80;30.40;;;2.30;99.90;;;;;;5034454;28;20041;-75
2022/01/16 01:19:34;;;;;;;69.43;25.77;;;2.30;99.90;;;;;;5052361;28;20036;-76
2022/01/16 01:22:04;;;;;;;68.97;28.83;;;2.20;99.90;;;;;;5055467;28;20072;-75
2022/01/16 01:24:33;;;;;;;69.93;28.00;;;2.20;99.90;;;;;;5071767;28;20049;-76
2022/01/16 01:29:28;;;;;;;75.27;28.37;;;2.20;99.90;;;;;;5057587;28;20052;-76
2022/01/16 01:31:53;;;;;;;66.57;27.07;;;2.10;99.90;;;;;;5058926;28;20071;-78
2022/01/16 01:34:20;;;;;;;70.43;28.93;;;2.00;99.90;;;;;;5027184;28;20045;-76
2022/01/16 01:36:48;;;;;;;71.17;29.67;;;2.00;99.90;;;;;;5075347;28;20096;-76
2022/01/16 01:39:19;;;;;;;71.43;29.60;;;2.00;99.90;;;;;;5024253;28;20041;-76
2022/01/16 01:41:47;;;;;;;68.73;27.20;;;2.00;99.90;;;;;;5039123;28;20045;-76
2022/01/16 01:52:26;;;;;;;68.60;26.23;;;2.00;99.90;;;;;;5075663;28;20045;-76
2022/01/16 01:54:52;;;;;;;65.73;26.00;;;1.90;99.90;;;;;;5057963;28;20106;-76
2022/01/16 01:57:18;;;;;;;69.97;27.33;;;1.90;99.90;;;;;;5074963;28;20041;-76
2022/01/16 01:59:44;;;;;;;70.20;26.67;;;1.90;99.90;;;;;;5024010;28;20243;-75
2022/01/16 02:02:10;;;;;;;75.70;28.37;;;1.90;99.90;;;;;;5058081;28;20132;-76
2022/01/16 02:04:36;;;;;;;70.60;27.37;;;1.90;99.90;;;;;;5057891;28;20048;-76
2022/01/16 02:07:02;;;;;;;74.57;27.47;;;1.90;99.90;;;;;;5057493;28;20053;-76
2022/01/16 02:09:28;;;;;;;76.00;27.63;;;1.90;99.90;;;;;;5025163;28;20815;-75
2022/01/16 02:11:53;;;;;;;71.43;28.63;;;1.90;99.90;;;;;;5040517;28;20076;-77
2022/01/16 02:14:28;;;;;;;75.03;28.10;;;1.90;99.90;;;;;;5041082;28;20068;-76
2022/01/16 02:34:28;;;;;;;86.33;31.33;;;2.00;99.90;;;;;;5089564;28;20041;-76
2022/01/16 02:36:17;;;;;;;85.23;30.37;;;2.00;99.90;;;;;;5056281;28;20060;-76
2022/01/16 02:38:45;;;;;;;97.97;33.70;;;2.10;99.90;;;;;;5057790;28;20047;-76
2022/01/16 02:41:11;;;;;;;90.67;33.97;;;2.10;99.90;;;;;;5011290;28;20048;-76
2022/01/16 02:43:41;;;;;;;90.97;33.87;;;2.10;99.90;;;;;;5070502;28;20071;-76
2022/01/16 02:46:49;;;;;;;98.73;33.10;;;2.10;99.90;;;;;;5072183;28;20074;-76
2022/01/16 02:48:56;;;;;;;100.17;35.10;;;2.10;99.90;;;;;;5054259;28;20061;-77
2022/01/16 02:51:25;;;;;;;100.63;34.20;;;2.10;99.90;;;;;;5055937;28;20132;-77
2022/01/16 02:53:52;;;;;;;98.53;35.43;;;2.10;99.90;;;;;;5072258;28;20045;-77
2022/01/16 02:56:19;;;;;;;104.47;35.43;;;2.20;99.90;;;;;;5058093;28;20037;-76
2022/01/16 02:58:46;;;;;;;105.93;35.80;;;2.20;99.90;;;;;;5039378;28;20044;-76
2022/01/16 03:01:13;;;;;;;109.60;35.83;;;2.10;99.90;;;;;;5073952;28;20109;-76
2022/01/16 03:03:39;;;;;;;110.43;35.83;;;2.10;99.90;;;;;;5072334;28;20037;-76
2022/01/16 03:06:04;;;;;;;118.90;37.30;;;2.20;99.90;;;;;;5040218;28;20080;-76
2022/01/16 03:08:30;;;;;;;122.50;39.33;;;2.20;99.90;;;;;;5056713;28;20056;-76
2022/01/16 03:11:24;;;;;;;123.10;39.93;;;2.20;99.90;;;;;;5073732;28;20055;-76
2022/01/16 03:13:47;;;;;;;134.70;42.40;;;2.10;99.90;;;;;;5041405;28;20120;-76
2022/01/16 03:16:15;;;;;;;127.83;40.30;;;2.20;99.90;;;;;;5023483;28;20048;-77
2022/01/16 03:24:10;;;;;;;129.10;39.30;;;2.20;99.90;;;;;;5073321;28;20053;-77
2022/01/16 03:26:35;;;;;;;129.10;38.90;;;2.20;99.90;;;;;;5007606;28;20099;-76
2022/01/16 03:29:01;;;;;;;126.47;38.07;;;2.20;99.90;;;;;;5051821;28;20075;-76
2022/01/16 03:31:27;;;;;;;130.27;40.87;;;2.20;99.90;;;;;;5039675;28;20041;-76
2022/01/16 03:33:53;;;;;;;122.23;37.27;;;2.20;99.90;;;;;;5022856;28;20040;-76
2022/01/16 03:36:18;;;;;;;135.37;39.10;;;2.20;99.90;;;;;;5073810;28;20045;-77
2022/01/16 03:38:44;;;;;;;159.97;44.97;;;2.20;99.90;;;;;;5055403;28;20419;-77
2022/01/16 03:41:10;;;;;;;135.97;41.23;;;2.30;99.90;;;;;;5072733;28;20034;-76
2022/01/16 03:43:36;;;;;;;133.37;40.20;;;2.20;99.90;;;;;;5023208;28;20040;-76
2022/01/16 03:46:03;;;;;;;142.43;40.70;;;2.20;99.90;;;;;;5055477;28;20059;-76
2022/01/16 03:48:29;;;;;;;134.63;39.60;;;2.20;99.90;;;;;;5055762;28;20416;-76
2022/01/16 03:50:55;;;;;;;135.90;41.23;;;2.30;99.90;;;;;;5038713;28;20072;-76
2022/01/16 03:53:21;;;;;;;141.87;42.37;;;2.20;99.90;;;;;;5052974;28;20064;-76
2022/01/16 03:55:48;;;;;;;124.07;38.90;;;2.20;99.90;;;;;;5049784;28;20052;-76
2022/01/16 03:58:14;;;;;;;141.00;43.10;;;2.30;99.90;;;;;;5007534;28;20103;-76
2022/01/16 04:00:40;;;;;;;136.17;41.47;;;2.20;99.90;;;;;;5039230;28;20025;-76
2022/01/16 04:03:06;;;;;;;130.00;39.23;;;2.30;99.90;;;;;;5021848;28;20048;-76
2022/01/16 04:05:32;;;;;;;133.07;38.60;;;2.30;99.90;;;;;;5056633;28;20045;-76
2022/01/16 04:07:59;;;;;;;132.93;39.53;;;2.30;99.90;;;;;;5005342;28;20085;-76
2022/01/16 04:10:25;;;;;;;145.33;43.37;;;2.30;99.90;;;;;;5022939;28;20033;-77
2022/01/16 04:12:51;;;;;;;135.93;39.40;;;2.30;99.90;;;;;;5055187;28;20040;-76
2022/01/16 04:17:46;;;;;;;140.90;41.23;;;2.30;99.90;;;;;;5055566;28;20044;-77
2022/01/16 04:20:16;;;;;;;133.53;39.77;;;2.30;99.90;;;;;;5055214;28;20076;-76
2022/01/16 04:22:43;;;;;;;122.23;40.03;;;2.40;99.90;;;;;;5072691;28;20045;-76
2022/01/16 04:25:09;;;;;;;123.77;40.10;;;2.40;99.90;;;;;;5054661;28;20137;-76
2022/01/16 04:27:35;;;;;;;150.63;41.30;;;2.40;99.90;;;;;;5055776;28;20084;-75
2022/01/16 04:30:01;;;;;;;144.87;41.00;;;2.40;99.90;;;;;;5005091;28;20988;-75
2022/01/16 04:32:26;;;;;;;144.10;41.30;;;2.40;99.90;;;;;;5055720;28;20128;-75
2022/01/16 04:34:53;;;;;;;159.57;42.10;;;2.40;99.90;;;;;;5022568;28;20095;-76
2022/01/16 04:37:19;;;;;;;136.97;39.67;;;2.50;99.90;;;;;;5052028;28;20072;-76
2022/01/16 04:39:50;;;;;;;154.33;43.87;;;2.40;99.90;;;;;;5055288;28;20052;-76
2022/01/16 04:45:02;;;;;;;160.27;42.40;;;2.50;99.90;;;;;;5041218;28;20113;-76
2022/01/16 04:47:29;;;;;;;147.93;43.47;;;2.60;99.90;;;;;;5054470;28;20079;-76
2022/01/16 04:49:55;;;;;;;141.27;41.30;;;2.50;99.90;;;;;;5054360;28;20099;-76
2022/01/16 04:52:20;;;;;;;147.93;44.00;;;2.50;99.90;;;;;;5022186;28;20045;-76
2022/01/16 04:54:46;;;;;;;135.37;40.10;;;2.60;99.90;;;;;;5037450;28;20052;-76
2022/01/16 04:57:13;;;;;;;129.67;41.57;;;2.60;99.90;;;;;;5054733;28;20048;-75
2022/01/16 04:59:40;;;;;;;137.83;42.00;;;2.60;99.90;;;;;;5003817;28;20036;-76
2022/01/16 05:02:06;;;;;;;140.30;42.23;;;2.70;99.90;;;;;;5021873;28;20033;-76
2022/01/16 05:04:31;;;;;;;131.17;40.93;;;2.70;99.90;;;;;;5054062;28;20079;-76
2022/01/16 05:06:57;;;;;;;141.93;43.70;;;2.60;99.90;;;;;;5020511;28;20041;-76
2022/01/16 05:09:23;;;;;;;141.33;43.77;;;2.70;99.90;;;;;;5038431;28;20068;-76
2022/01/16 05:11:56;;;;;;;129.70;42.10;;;2.70;99.90;;;;;;5070542;28;20049;-76
2022/01/16 05:17:07;;;;;;;139.33;43.87;;;2.80;99.90;;;;;;5039361;28;20041;-77
2022/01/16 05:19:32;;;;;;;147.40;44.10;;;2.80;99.90;;;;;;5021203;28;20041;-76
2022/01/16 05:21:58;;;;;;;133.67;42.47;;;2.80;99.90;;;;;;5021524;28;20045;-76
2022/01/16 05:24:30;;;;;;;143.20;42.80;;;2.80;99.90;;;;;;5054313;28;20040;-76
2022/01/16 05:26:56;;;;;;;;;;;2.80;99.90;;;;;;5073620;28;20076;-76
2022/01/16 05:29:22;;;;;;;130.20;40.83;;;2.80;99.90;;;;;;5069982;28;19932;-76
2022/01/16 05:31:47;;;;;;;133.67;41.43;;;2.90;99.90;;;;;;5054818;28;20087;-76
2022/01/16 05:34:18;;;;;;;133.43;40.43;;;2.90;99.90;;;;;;5004967;28;20105;-77
2022/01/16 05:36:44;;;;;;;138.57;43.67;;;2.80;99.90;;;;;;5037900;28;20052;-77
2022/01/16 05:39:10;;;;;;;145.43;41.30;;;2.90;99.90;;;;;;5019639;28;20060;-77
2022/01/16 05:41:36;;;;;;;135.10;40.93;;;2.90;99.90;;;;;;5020685;28;20123;-77
2022/01/16 05:44:02;;;;;;;144.67;43.80;;;2.90;99.90;;;;;;5054361;28;20096;-77
2022/01/16 05:46:28;;;;;;;141.93;42.67;;;2.90;99.90;;;;;;5020773;28;20071;-77
2022/01/16 05:48:54;;;;;;;135.43;43.00;;;3.00;99.90;;;;;;5019548;28;20061;-76
2022/01/16 05:51:20;;;;;;;124.17;42.00;;;3.00;99.90;;;;;;5003873;28;20139;-77
2022/01/16 05:53:45;;;;;;;144.07;42.23;;;3.00;99.90;;;;;;5004551;28;20037;-78
2022/01/16 05:56:15;;;;;;;133.57;42.13;;;3.00;99.90;;;;;;5053265;28;20037;-76
2022/01/16 05:58:41;;;;;;;120.77;39.17;;;3.00;99.90;;;;;;5036816;28;20720;-76
2022/01/16 06:01:06;;;;;;;136.33;42.60;;;3.00;99.90;;;;;;5038137;28;20053;-77
2022/01/16 06:03:32;;;;;;;130.80;42.90;;;3.10;99.90;;;;;;5004104;28;20067;-76
2022/01/16 06:05:58;;;;;;;126.47;42.13;;;3.00;99.90;;;;;;5019377;28;20047;-76
2022/01/16 06:08:24;;;;;;;126.37;42.43;;;3.00;99.90;;;;;;5014373;28;20044;-77
2022/01/16 06:10:49;;;;;;;132.00;40.97;;;3.00;99.90;;;;;;5007325;28;20049;-76
2022/01/16 06:13:15;;;;;;;133.97;41.87;;;3.10;99.90;;;;;;5040524;28;20382;-76
2022/01/16 06:15:41;;;;;;;122.90;40.77;;;3.10;99.90;;;;;;5074556;28;20041;-76
2022/01/16 06:18:07;;;;;;;131.20;42.60;;;3.10;99.90;;;;;;5015963;28;20049;-76
2022/01/16 06:20:33;;;;;;;122.43;42.03;;;3.10;99.90;;;;;;5061205;28;20084;-74
2022/01/16 06:23:00;;;;;;;121.63;41.13;;;3.10;99.90;;;;;;5025217;28;20049;-76
2022/01/16 06:25:26;;;;;;;113.23;39.10;;;3.10;99.90;;;;;;5040876;28;20114;-76
2022/01/16 06:27:52;;;;;;;128.57;40.93;;;3.10;99.90;;;;;;5057857;28;20061;-76
2022/01/16 06:30:19;;;;;;;130.77;42.23;;;3.20;99.90;;;;;;5040711;28;20063;-77
2022/01/16 06:32:46;;;;;;;126.97;42.33;;;3.20;99.90;;;;;;5026105;28;20041;-76
2022/01/16 06:35:15;;;;;;;130.67;42.37;;;3.20;99.90;;;;;;5041661;28;20048;-75
2022/01/16 06:37:42;;;;;;;127.77;41.43;;;3.20;99.90;;;;;;5065445;28;20638;-75
2022/01/16 06:40:08;;;;;;;117.77;40.70;;;3.20;99.90;;;;;;5041180;28;20151;-76
2022/01/16 06:42:37;;;;;;;125.17;40.67;;;3.20;99.90;;;;;;5007046;28;20049;-77
2022/01/16 06:45:04;;;;;;;135.10;41.03;;;3.20;99.90;;;;;;5041110;28;20108;-76
2022/01/16 06:47:29;;;;;;;125.70;40.80;;;3.20;99.90;;;;;;5024099;28;20037;-77
2022/01/16 06:49:55;;;;;;;130.90;42.63;;;3.30;99.90;;;;;;5024280;28;20075;-76
2022/01/16 06:52:21;;;;;;;137.13;43.43;;;3.30;99.90;;;;;;5026646;28;20052;-76
2022/01/16 06:54:47;;;;;;;139.13;41.73;;;3.30;99.90;;;;;;5025092;28;20041;-76
2022/01/16 06:57:12;;;;;;;132.93;43.07;;;3.30;99.90;;;;;;5008414;28;20059;-76
2022/01/16 06:59:38;;;;;;;127.73;42.97;;;3.30;99.90;;;;;;5007367;28;20060;-76
2022/01/16 07:02:06;;;;;;;134.43;41.40;;;3.30;99.90;;;;;;5004812;28;20049;-76
2022/01/16 07:04:32;;;;;;;131.20;42.33;;;3.30;99.90;;;;;;5040355;28;20051;-76
2022/01/16 07:06:58;;;;;;;133.63;41.90;;;3.40;99.90;;;;;;5040347;28;20110;-76
2022/01/16 07:09:23;;;;;;;141.03;43.87;;;3.40;99.90;;;;;;5024773;28;20040;-76
2022/01/16 07:11:49;;;;;;;146.07;42.20;;;3.40;99.90;;;;;;5023503;28;20049;-76
2022/01/16 07:14:15;;;;;;;141.77;43.77;;;3.40;99.90;;;;;;5021211;28;20130;-77
2022/01/16 07:16:41;;;;;;;135.73;44.07;;;3.40;99.90;;;;;;5024360;28;20054;-76
2022/01/16 07:19:06;;;;;;;131.40;42.53;;;3.50;99.90;;;;;;5008551;28;20076;-76
2022/01/16 07:21:32;;;;;;;128.80;43.03;;;3.40;99.90;;;;;;5022948;28;20072;-76
2022/01/16 07:23:58;;;;;;;135.80;43.47;;;3.50;99.90;;;;;;5056747;28;20079;-77
2022/01/16 07:26:24;;;;;;;129.20;43.10;;;3.50;99.90;;;;;;5024081;28;20037;-76
2022/01/16 07:28:51;;;;;;;136.13;44.17;;;3.50;99.90;;;;;;5038497;28;20047;-76
2022/01/16 07:31:17;;;;;;;136.73;45.03;;;3.50;99.90;;;;;;5056635;28;20075;-77
2022/01/16 07:33:42;;;;;;;133.03;40.97;;;3.50;99.90;;;;;;5003443;28;20049;-76
2022/01/16 07:36:08;;;;;;;135.30;44.40;;;3.50;99.90;;;;;;5040114;28;20125;-76
2022/01/16 07:38:34;;;;;;;141.17;44.20;;;3.60;99.90;;;;;;5045368;28;20104;-76
2022/01/16 07:41:00;;;;;;;132.77;43.77;;;3.60;99.90;;;;;;5028772;28;20047;-76
2022/01/16 07:43:25;;;;;;;133.63;43.40;;;3.60;99.90;;;;;;5039981;28;20040;-76
2022/01/16 07:45:51;;;;;;;134.47;42.30;;;3.60;99.90;;;;;;5054529;28;20049;-75
2022/01/16 07:48:17;;;;;;;146.20;44.10;;;3.70;99.90;;;;;;5006197;28;20060;-76
2022/01/16 07:50:43;;;;;;;133.13;43.43;;;3.70;99.90;;;;;;5056044;28;20052;-77
2022/01/16 07:53:09;;;;;;;133.30;41.63;;;3.70;99.90;;;;;;5023984;28;20055;-76
2022/01/16 07:55:35;;;;;;;125.07;42.83;;;3.70;99.90;;;;;;5039937;28;20085;-76
2022/01/16 07:58:01;;;;;;;133.67;44.77;;;3.70;99.90;;;;;;5040036;28;20041;-79
2022/01/16 08:00:27;;;;;;;125.57;41.87;;;3.80;99.90;;;;;;5022817;28;20047;-77
2022/01/16 08:02:53;;;;;;;130.00;42.57;;;3.80;99.90;;;;;;5040297;28;20073;-78
2022/01/16 08:05:20;;;;;;;129.17;42.63;;;3.80;99.90;;;;;;5046464;28;20111;-78
2022/01/16 08:07:47;;;;;;;128.90;43.33;;;3.90;99.90;;;;;;5024578;28;20072;-78
2022/01/16 08:10:13;;;;;;;123.23;41.90;;;3.90;99.90;;;;;;5060000;28;20096;-80
2022/01/16 08:12:40;;;;;;;137.70;45.13;;;3.90;99.90;;;;;;5041629;28;20045;-79
2022/01/16 08:15:07;;;;;;;123.43;41.57;;;3.90;99.90;;;;;;5044034;28;20047;-80
2022/01/16 08:17:32;;;;;;;126.77;41.80;;;3.90;99.90;;;;;;5031137;28;20037;-78
2022/01/16 08:19:59;;;;;;;134.23;43.27;;;3.90;99.90;;;;;;5038156;28;20241;-77
2022/01/16 08:22:25;;;;;;;128.20;43.93;;;4.00;99.90;;;;;;5039103;28;20064;-77
2022/01/16 08:24:51;;;;;;;121.40;43.80;;;4.00;99.90;;;;;;5038002;28;20083;-76
2022/01/16 08:27:17;;;;;;;121.17;41.60;;;4.00;99.90;;;;;;5038074;28;20110;-77
2022/01/16 08:29:43;;;;;;;126.03;44.10;;;4.10;99.90;;;;;;5018408;28;20534;-76
2022/01/16 08:32:09;;;;;;;118.37;42.53;;;4.10;99.90;;;;;;5038486;28;20048;-76
2022/01/16 08:34:35;;;;;;;125.33;43.80;;;4.20;99.90;;;;;;5054512;28;20654;-76
2022/01/16 08:37:01;;;;;;;115.00;41.27;;;4.20;99.90;;;;;;5021029;28;20056;-76
2022/01/16 08:39:27;;;;;;;125.67;43.23;;;4.30;99.90;;;;;;5055646;28;20706;-74
2022/01/16 08:41:53;;;;;;;124.93;42.43;;;4.20;99.90;;;;;;5022939;28;20455;-74
2022/01/16 08:44:19;;;;;;;116.27;41.70;;;4.30;99.90;;;;;;5037467;28;20059;-74
2022/01/16 08:46:45;;;;;;;121.67;42.20;;;4.30;99.90;;;;;;5039906;28;20579;-74
2022/01/16 08:49:11;;;;;;;114.50;40.73;;;4.40;99.90;;;;;;5020431;28;20053;-74
2022/01/16 08:51:37;;;;;;;121.77;41.70;;;4.40;99.90;;;;;;5005240;28;20049;-73
2022/01/16 08:54:03;;;;;;;121.60;45.23;;;4.40;99.90;;;;;;5019579;28;20051;-74
2022/01/16 08:56:29;;;;;;;115.17;42.40;;;4.40;99.90;;;;;;5039503;28;20044;-75
2022/01/16 08:58:55;;;;;;;107.60;41.17;;;4.40;99.90;;;;;;5039040;28;20538;-74
2022/01/16 09:01:21;;;;;;;113.60;41.80;;;4.50;99.90;;;;;;5039194;28;20055;-74
2022/01/16 09:03:47;;;;;;;111.57;41.20;;;4.60;99.90;;;;;;5070712;28;20776;-74
2022/01/16 09:06:13;;;;;;;119.23;43.37;;;4.60;99.90;;;;;;5055025;28;20055;-74
2022/01/16 09:08:39;;;;;;;107.30;40.97;;;4.60;99.90;;;;;;5021576;28;20083;-74
2022/01/16 09:11:05;;;;;;;109.20;38.13;;;4.60;99.90;;;;;;5038890;28;20156;-74
2022/01/16 09:13:31;;;;;;;106.00;40.60;;;4.60;99.90;;;;;;5021267;28;20100;-74
2022/01/16 09:15:57;;;;;;;113.67;41.43;;;4.60;99.90;;;;;;5036808;28;20160;-75
2022/01/16 09:18:23;;;;;;;100.90;39.83;;;4.70;99.90;;;;;;5017429;28;20052;-74
2022/01/16 09:20:49;;;;;;;102.53;38.90;;;4.70;99.90;;;;;;5044777;28;20037;-74
2022/01/16 09:23:15;;;;;;;102.23;40.03;;;4.80;99.90;;;;;;5035080;28;20139;-74
2022/01/16 09:25:41;;;;;;;100.00;40.27;;;4.80;99.90;;;;;;5066532;28;20132;-74
2022/01/16 09:28:06;;;;;;;96.57;38.30;;;4.90;99.90;;;;;;5019706;28;20076;-74
2022/01/16 09:30:33;;;;;;;97.53;38.20;;;5.00;99.90;;;;;;5033500;28;20512;-74
2022/01/16 09:32:59;;;;;;;107.17;39.87;;;5.00;99.90;;;;;;5036127;28;20048;-74
2022/01/16 09:35:26;;;;;;;90.60;39.10;;;5.00;99.90;;;;;;5062072;28;20041;-75
2022/01/16 09:37:52;;;;;;;94.17;38.47;;;5.10;99.90;;;;;;5035688;28;20498;-75
2022/01/16 09:40:21;;;;;;;88.80;36.53;;;5.20;99.90;;;;;;5019975;28;20048;-74
2022/01/16 09:42:47;;;;;;;84.50;36.17;;;5.20;99.90;;;;;;5067770;28;20037;-74
2022/01/16 09:45:16;;;;;;;89.03;36.47;;;5.20;99.90;;;;;;5037643;28;20049;-74
2022/01/16 09:47:44;;;;;;;88.93;36.33;;;5.30;99.90;;;;;;5024175;28;20045;-74
2022/01/16 09:50:11;;;;;;;81.50;34.90;;;5.30;99.90;;;;;;5055946;28;20088;-74
2022/01/16 09:52:39;;;;;;;80.37;34.43;;;5.40;99.90;;;;;;5057683;28;20041;-74
2022/01/16 09:55:06;;;;;;;86.57;35.77;;;5.40;99.90;;;;;;5039881;28;20072;-74
2022/01/16 09:57:32;;;;;;;78.00;33.47;;;5.50;99.90;;;;;;5077381;28;20052;-74
2022/01/16 09:59:58;;;;;;;81.90;35.17;;;5.50;99.90;;;;;;5055555;28;20112;-75
2022/01/16 10:02:24;;;;;;;79.97;34.57;;;5.50;99.90;;;;;;5062508;28;20137;-75
2022/01/16 10:04:50;;;;;;;79.37;35.70;;;5.50;99.90;;;;;;5054058;28;20504;-74
2022/01/16 10:07:18;;;;;;;75.37;33.90;;;5.60;99.90;;;;;;5054164;28;20049;-77
2022/01/16 10:10:06;;;;;;;74.17;33.93;;;5.60;99.90;;;;;;5023401;28;20068;-74
2022/01/16 10:12:33;;;;;;;71.70;32.60;;;5.70;99.90;;;;;;5026943;28;20048;-75
2022/01/16 10:15:24;;;;;;;76.53;33.47;;;5.60;99.90;;;;;;5068010;28;20084;-75
2022/01/16 10:17:56;;;;;;;72.67;33.50;;;5.70;99.90;;;;;;5090206;28;20075;-74
2022/01/16 10:20:23;;;;;;;;;;;5.70;99.90;;;;;;5039595;28;20038;-75
2022/01/16 10:22:55;;;;;;;63.17;30.37;;;5.80;99.90;;;;;;5040522;28;20009;-75
2022/01/16 10:25:45;;;;;;;68.30;30.90;;;5.70;99.90;;;;;;5039948;28;20051;-74
2022/01/16 10:28:18;;;;;;;63.53;29.60;;;5.80;99.90;;;;;;5040355;28;20049;-75
2022/01/16 10:30:47;;;;;;;70.40;31.50;;;5.80;99.90;;;;;;5040365;28;20049;-74
2022/01/16 10:33:21;;;;;;;62.33;31.83;;;5.90;99.90;;;;;;5056377;28;20660;-74
2022/01/16 10:35:50;;;;;;;60.67;29.50;;;5.90;99.90;;;;;;5057376;28;20103;-75
2022/01/16 10:38:22;;;;;;;66.20;31.20;;;5.90;99.90;;;;;;5072926;28;20044;-74
2022/01/16 10:40:50;;;;;;;;;;;6.00;99.90;;;;;;5040259;28;20056;-75
2022/01/16 10:43:41;;;;;;;63.23;29.70;;;5.90;99.90;;;;;;5056682;28;19968;-75
2022/01/16 10:46:08;;;;;;;60.17;28.37;;;5.90;99.90;;;;;;5027159;28;20056;-75
2022/01/16 10:48:33;;;;;;;57.67;27.30;;;6.00;99.90;;;;;;5073513;28;20033;-75
2022/01/16 10:51:01;;;;;;;55.43;27.20;;;6.00;99.90;;;;;;5071423;28;20047;-75
2022/01/16 10:53:28;;;;;;;64.67;28.37;;;6.00;99.90;;;;;;5056633;28;20053;-75
2022/01/16 10:55:56;;;;;;;59.90;27.47;;;6.00;99.90;;;;;;5056005;28;20037;-75
2022/01/16 10:58:37;;;;;;;56.63;27.57;;;6.00;99.90;;;;;;5053812;28;20132;-84
2022/01/16 11:01:10;;;;;;;59.83;27.60;;;6.00;99.90;;;;;;5073366;28;20055;-74
2022/01/16 11:03:45;;;;;;;57.23;26.67;;;6.10;99.90;;;;;;5055330;28;20048;-74
2022/01/16 11:06:21;;;;;;;55.50;25.73;;;6.00;99.90;;;;;;5040098;28;20122;-74
2022/01/16 11:08:56;;;;;;;55.23;24.40;;;6.00;99.90;;;;;;5039592;28;20045;-74
2022/01/16 11:11:26;;;;;;;54.67;24.90;;;6.00;99.90;;;;;;5089117;28;20497;-74
2022/01/16 11:13:54;;;;;;;52.57;26.13;;;6.10;99.90;;;;;;5059205;28;20056;-74
2022/01/16 11:16:20;;;;;;;54.30;25.20;;;6.10;99.90;;;;;;5021873;28;20043;-74
2022/01/16 11:18:49;;;;;;;53.77;25.47;;;6.10;99.90;;;;;;5058516;28;20040;-73
2022/01/16 11:21:30;;;;;;;51.03;23.03;;;6.10;99.90;;;;;;5038149;28;20042;-74
2022/01/16 11:24:22;;;;;;;56.80;24.35;;;6.10;99.90;;;;;;5065104;28;20045;-74
2022/01/16 11:26:46;;;;;;;47.47;23.10;;;6.10;99.90;;;;;;5057472;28;20093;-75
2022/01/16 11:29:13;;;;;;;47.67;23.40;;;6.10;99.90;;;;;;5004343;28;20057;-75
2022/01/16 11:31:39;;;;;;;47.27;23.00;;;6.20;99.90;;;;;;5039600;28;20045;-74
2022/01/16 11:34:05;;;;;;;49.60;23.00;;;6.20;99.90;;;;;;5024841;28;20045;-74
2022/01/16 11:36:31;;;;;;;42.67;21.00;;;6.20;99.90;;;;;;5020822;28;20046;-74
2022/01/16 11:39:02;;;;;;;43.17;21.10;;;6.20;99.90;;;;;;5056406;28;20468;-74
2022/01/16 11:41:36;;;;;;;49.43;21.73;;;6.20;99.90;;;;;;5037657;28;20037;-74
2022/01/16 11:44:08;;;;;;;41.70;20.30;;;6.20;99.90;;;;;;5055063;28;20092;-75
2022/01/16 11:46:40;;;;;;;44.80;20.98;;;6.20;99.90;;;;;;5038206;28;20047;-74
2022/01/16 11:49:07;;;;;;;37.57;19.37;;;6.20;99.90;;;;;;5056979;28;20101;-74
2022/01/16 11:51:37;;;;;;;44.50;19.47;;;6.20;99.90;;;;;;5037930;28;20049;-74
2022/01/16 11:54:15;;;;;;;41.30;19.50;;;6.20;99.90;;;;;;5038274;28;20499;-75
2022/01/16 11:56:41;;;;;;;39.73;19.07;;;6.20;99.90;;;;;;5039445;28;20052;-74
2022/01/16 11:59:41;;;;;;;37.43;18.87;;;6.30;99.90;;;;;;5053410;28;20122;-74
2022/01/16 12:02:07;;;;;;;41.00;17.83;;;6.30;99.90;;;;;;5053596;28;20057;-75
2022/01/16 12:04:33;;;;;;;32.37;17.23;;;6.30;99.90;;;;;;5037365;28;20049;-74
2022/01/16 12:07:20;;;;;;;39.50;18.53;;;6.30;99.90;;;;;;5055975;28;20071;-74
2022/01/16 12:09:52;;;;;;;37.97;17.67;;;6.30;99.90;;;;;;5037570;28;20104;-76
2022/01/16 12:12:17;;;;;;;34.65;16.83;;;6.30;99.90;;;;;;5052121;28;20044;-75
2022/01/16 12:14:56;;;;;;;28.30;15.40;;;6.30;99.90;;;;;;5037899;28;20040;-75
2022/01/16 12:17:30;;;;;;;31.77;15.80;;;6.30;99.90;;;;;;5053943;28;20450;-75
2022/01/16 12:19:57;;;;;;;33.27;16.33;;;6.30;99.90;;;;;;5067975;28;20041;-74
2022/01/16 12:22:47;;;;;;;30.60;15.07;;;6.40;99.90;;;;;;5036862;28;20041;-75
2022/01/16 12:25:16;;;;;;;36.13;15.43;;;6.40;99.90;;;;;;5051738;28;20053;-75
2022/01/16 12:27:44;;;;;;;27.97;13.97;;;6.40;99.90;;;;;;5038052;28;20108;-75
2022/01/16 12:30:14;;;;;;;28.20;13.50;;;6.40;99.90;;;;;;5053555;28;20040;-75
2022/01/16 12:32:49;;;;;;;25.07;13.63;;;6.50;99.90;;;;;;5036038;28;20386;-74
2022/01/16 12:35:15;;;;;;;31.37;14.40;;;6.50;99.90;;;;;;5035931;28;20048;-75
2022/01/16 12:37:43;;;;;;;25.77;14.30;;;6.60;99.90;;;;;;5034936;28;20206;-75
2022/01/16 12:40:09;;;;;;;30.97;13.70;;;6.50;99.90;;;;;;5071779;28;20075;-75
2022/01/16 12:42:35;;;;;;;24.23;13.17;;;6.50;99.90;;;;;;5085513;28;20041;-75
2022/01/16 12:45:01;;;;;;;25.63;12.23;;;6.50;99.90;;;;;;5023814;28;20528;-75
2022/01/16 12:47:26;;;;;;;26.30;12.47;;;6.60;99.90;;;;;;5034364;28;20060;-75
2022/01/16 12:49:53;;;;;;;24.90;12.43;;;6.60;99.90;;;;;;5019310;28;20045;-88
2022/01/16 12:52:19;;;;;;;21.93;10.60;;;6.60;99.90;;;;;;5041992;28;20072;-75
2022/01/16 12:54:50;;;;;;;22.23;11.30;;;6.60;99.90;;;;;;5051122;28;20045;-78
2022/01/16 12:57:26;;;;;;;23.37;10.93;;;6.60;99.90;;;;;;5008059;28;20088;-74
2022/01/16 12:59:51;;;;;;;24.87;10.80;;;6.60;99.90;;;;;;5036501;28;20049;-74
2022/01/16 13:02:17;;;;;;;23.87;9.87;;;6.60;99.90;;;;;;5051835;28;20052;-75
2022/01/16 13:04:46;;;;;;;20.27;10.63;;;6.60;99.90;;;;;;5037714;28;20067;-73
2022/01/16 13:07:17;;;;;;;20.70;10.70;;;6.70;99.90;;;;;;5036521;28;20041;-73
2022/01/16 13:09:43;;;;;;;18.80;11.00;;;6.70;99.90;;;;;;5037975;28;20037;-74
2022/01/16 13:12:13;;;;;;;17.43;10.23;;;6.70;99.90;;;;;;5035908;28;20322;-74
2022/01/16 13:14:43;;;;;;;18.90;10.07;;;6.70;99.90;;;;;;5021145;28;20041;-74
2022/01/16 13:17:11;;;;;;;17.93;9.40;;;6.70;99.90;;;;;;5036856;28;20435;-74
2022/01/16 13:22:16;;;;;;;20.07;9.87;;;6.70;99.90;;;;;;5042677;28;20060;-74